sensor_id;sensor_type;location;lat;lon;timestamp;P1;durP1;ratioP1;P2;durP2;ratioP2
37937;SDS011;23763;48.130;11.602;2023-10-08T00:00:42;8.02;;;7.32;;
37937;SDS011;23763;48.130;11.602;2023-10-08T00:03:12;7.70;;;7.00;;
37937;SDS011;23763;48.130;11.602;2023-10-08T00:05:39;8.07;;;7.28;;
37937;SDS011;23763;48.130;11.602;2023-10-08T00:08:06;7.68;;;6.97;;
37937;SDS011;23763;48.130;11.602;2023-10-08T00:10:37;8.95;;;7.38;;
37937;SDS011;23763;48.130;11.602;2023-10-08T00:13:05;7.95;;;7.07;;
37937;SDS011;23763;48.130;11.602;2023-10-08T00:15:37;7.82;;;7.20;;
37937;SDS011;23763;48.130;11.602;2023-10-08T00:18:14;8.00;;;7.20;;
37937;SDS011;23763;48.130;11.602;2023-10-08T00:20:40;7.70;;;7.00;;
37937;SDS011;23763;48.130;11.602;2023-10-08T00:23:32;7.80;;;6.70;;
37937;SDS011;23763;48.130;11.602;2023-10-08T00:26:00;9.10;;;7.38;;
37937;SDS011;23763;48.130;11.602;2023-10-08T00:28:31;8.15;;;7.45;;
37937;SDS011;23763;48.130;11.602;2023-10-08T00:30:57;7.60;;;6.90;;
37937;SDS011;23763;48.130;11.602;2023-10-08T00:33:30;7.78;;;7.07;;
37937;SDS011;23763;48.130;11.602;2023-10-08T00:35:56;7.07;;;6.43;;
37937;SDS011;23763;48.130;11.602;2023-10-08T00:38:21;7.28;;;6.68;;
37937;SDS011;23763;48.130;11.602;2023-10-08T00:40:50;7.32;;;6.68;;
37937;SDS011;23763;48.130;11.602;2023-10-08T00:43:33;7.85;;;7.00;;
37937;SDS011;23763;48.130;11.602;2023-10-08T00:46:00;7.70;;;7.10;;
37937;SDS011;23763;48.130;11.602;2023-10-08T00:48:26;7.65;;;6.85;;
37937;SDS011;23763;48.130;11.602;2023-10-08T00:51:02;8.07;;;6.85;;
37937;SDS011;23763;48.130;11.602;2023-10-08T00:54:00;8.52;;;7.72;;
37937;SDS011;23763;48.130;11.602;2023-10-08T00:56:32;8.32;;;7.13;;
37937;SDS011;23763;48.130;11.602;2023-10-08T00:59:15;7.43;;;6.80;;
37937;SDS011;23763;48.130;11.602;2023-10-08T01:01:44;7.57;;;6.97;;
37937;SDS011;23763;48.130;11.602;2023-10-08T01:04:24;8.05;;;7.03;;
37937;SDS011;23763;48.130;11.602;2023-10-08T01:06:54;8.80;;;6.70;;
37937;SDS011;23763;48.130;11.602;2023-10-08T01:09:26;8.05;;;7.32;;
37937;SDS011;23763;48.130;11.602;2023-10-08T01:14:48;7.93;;;7.18;;
37937;SDS011;23763;48.130;11.602;2023-10-08T01:17:18;8.05;;;7.35;;
37937;SDS011;23763;48.130;11.602;2023-10-08T01:19:49;7.78;;;7.07;;
37937;SDS011;23763;48.130;11.602;2023-10-08T01:22:45;7.70;;;6.90;;
37937;SDS011;23763;48.130;11.602;2023-10-08T01:25:11;7.15;;;6.45;;
37937;SDS011;23763;48.130;11.602;2023-10-08T01:27:45;7.65;;;6.95;;
37937;SDS011;23763;48.130;11.602;2023-10-08T01:30:11;7.47;;;6.63;;
37937;SDS011;23763;48.130;11.602;2023-10-08T01:32:43;7.72;;;7.07;;
37937;SDS011;23763;48.130;11.602;2023-10-08T01:35:09;7.75;;;6.95;;
37937;SDS011;23763;48.130;11.602;2023-10-08T01:37:48;7.65;;;7.00;;
37937;SDS011;23763;48.130;11.602;2023-10-08T01:40:15;7.63;;;6.88;;
37937;SDS011;23763;48.130;11.602;2023-10-08T01:42:41;7.85;;;7.15;;
37937;SDS011;23763;48.130;11.602;2023-10-08T01:45:07;8.00;;;7.05;;
37937;SDS011;23763;48.130;11.602;2023-10-08T01:47:35;9.45;;;7.32;;
37937;SDS011;23763;48.130;11.602;2023-10-08T01:50:01;8.07;;;6.85;;
37937;SDS011;23763;48.130;11.602;2023-10-08T01:52:31;7.68;;;6.97;;
37937;SDS011;23763;48.130;11.602;2023-10-08T01:54:59;8.05;;;6.95;;
37937;SDS011;23763;48.130;11.602;2023-10-08T01:57:25;7.72;;;7.05;;
37937;SDS011;23763;48.130;11.602;2023-10-08T01:59:51;10.82;;;7.07;;
37937;SDS011;23763;48.130;11.602;2023-10-08T02:02:17;10.27;;;6.93;;
37937;SDS011;23763;48.130;11.602;2023-10-08T02:04:43;7.63;;;6.90;;
37937;SDS011;23763;48.130;11.602;2023-10-08T02:07:08;7.88;;;7.00;;
37937;SDS011;23763;48.130;11.602;2023-10-08T02:09:37;7.30;;;6.60;;
37937;SDS011;23763;48.130;11.602;2023-10-08T02:12:06;8.32;;;6.72;;
37937;SDS011;23763;48.130;11.602;2023-10-08T02:14:33;7.35;;;6.75;;
37937;SDS011;23763;48.130;11.602;2023-10-08T02:17:00;8.68;;;6.97;;
37937;SDS011;23763;48.130;11.602;2023-10-08T02:19:31;8.32;;;6.25;;
37937;SDS011;23763;48.130;11.602;2023-10-08T02:22:01;10.07;;;6.53;;
37937;SDS011;23763;48.130;11.602;2023-10-08T02:24:30;7.00;;;6.40;;
37937;SDS011;23763;48.130;11.602;2023-10-08T02:26:56;7.28;;;6.55;;
37937;SDS011;23763;48.130;11.602;2023-10-08T02:29:26;9.70;;;6.97;;
37937;SDS011;23763;48.130;11.602;2023-10-08T02:31:54;9.70;;;7.03;;
37937;SDS011;23763;48.130;11.602;2023-10-08T02:34:21;7.30;;;6.28;;
37937;SDS011;23763;48.130;11.602;2023-10-08T02:36:46;7.85;;;7.10;;
37937;SDS011;23763;48.130;11.602;2023-10-08T02:39:12;7.80;;;6.32;;
37937;SDS011;23763;48.130;11.602;2023-10-08T02:41:39;9.73;;;7.07;;
37937;SDS011;23763;48.130;11.602;2023-10-08T02:44:06;7.18;;;6.40;;
37937;SDS011;23763;48.130;11.602;2023-10-08T02:46:37;7.38;;;6.38;;
37937;SDS011;23763;48.130;11.602;2023-10-08T02:49:05;7.60;;;6.43;;
37937;SDS011;23763;48.130;11.602;2023-10-08T02:51:40;7.75;;;6.70;;
37937;SDS011;23763;48.130;11.602;2023-10-08T02:54:09;7.63;;;6.78;;
37937;SDS011;23763;48.130;11.602;2023-10-08T02:56:47;8.13;;;6.47;;
37937;SDS011;23763;48.130;11.602;2023-10-08T02:59:16;7.50;;;6.53;;
37937;SDS011;23763;48.130;11.602;2023-10-08T03:01:43;7.30;;;6.57;;
37937;SDS011;23763;48.130;11.602;2023-10-08T03:04:09;6.82;;;6.10;;
37937;SDS011;23763;48.130;11.602;2023-10-08T03:06:44;7.05;;;6.45;;
37937;SDS011;23763;48.130;11.602;2023-10-08T03:09:14;7.60;;;6.53;;
37937;SDS011;23763;48.130;11.602;2023-10-08T03:11:48;7.32;;;6.28;;
37937;SDS011;23763;48.130;11.602;2023-10-08T03:14:15;7.97;;;6.30;;
37937;SDS011;23763;48.130;11.602;2023-10-08T03:16:51;7.32;;;6.50;;
37937;SDS011;23763;48.130;11.602;2023-10-08T03:19:18;7.30;;;6.55;;
37937;SDS011;23763;48.130;11.602;2023-10-08T03:21:46;9.93;;;6.47;;
37937;SDS011;23763;48.130;11.602;2023-10-08T03:24:21;7.07;;;6.38;;
37937;SDS011;23763;48.130;11.602;2023-10-08T03:27:00;11.18;;;6.72;;
37937;SDS011;23763;48.130;11.602;2023-10-08T03:29:40;8.68;;;5.97;;
37937;SDS011;23763;48.130;11.602;2023-10-08T03:32:07;6.70;;;6.07;;
37937;SDS011;23763;48.130;11.602;2023-10-08T03:34:38;7.32;;;6.35;;
37937;SDS011;23763;48.130;11.602;2023-10-08T03:37:07;7.95;;;6.60;;
37937;SDS011;23763;48.130;11.602;2023-10-08T03:39:33;6.70;;;6.10;;
37937;SDS011;23763;48.130;11.602;2023-10-08T03:42:22;6.72;;;6.13;;
37937;SDS011;23763;48.130;11.602;2023-10-08T03:44:49;6.85;;;5.60;;
37937;SDS011;23763;48.130;11.602;2023-10-08T03:47:17;7.07;;;6.30;;
37937;SDS011;23763;48.130;11.602;2023-10-08T03:49:46;6.78;;;6.07;;
37937;SDS011;23763;48.130;11.602;2023-10-08T03:52:15;7.18;;;6.57;;
37937;SDS011;23763;48.130;11.602;2023-10-08T03:54:41;7.38;;;6.28;;
37937;SDS011;23763;48.130;11.602;2023-10-08T03:57:29;7.38;;;6.68;;
37937;SDS011;23763;48.130;11.602;2023-10-08T04:00:06;7.70;;;6.35;;
37937;SDS011;23763;48.130;11.602;2023-10-08T04:02:37;8.27;;;6.70;;
37937;SDS011;23763;48.130;11.602;2023-10-08T04:05:06;7.38;;;6.43;;
37937;SDS011;23763;48.130;11.602;2023-10-08T04:07:43;9.15;;;6.47;;
37937;SDS011;23763;48.130;11.602;2023-10-08T04:10:23;9.88;;;6.32;;
37937;SDS011;23763;48.130;11.602;2023-10-08T04:13:08;7.78;;;6.90;;
37937;SDS011;23763;48.130;11.602;2023-10-08T04:15:34;7.63;;;6.80;;
37937;SDS011;23763;48.130;11.602;2023-10-08T04:18:05;7.57;;;6.60;;
37937;SDS011;23763;48.130;11.602;2023-10-08T04:20:32;7.75;;;6.15;;
37937;SDS011;23763;48.130;11.602;2023-10-08T04:22:58;8.38;;;6.50;;
37937;SDS011;23763;48.130;11.602;2023-10-08T04:25:30;8.90;;;7.03;;
37937;SDS011;23763;48.130;11.602;2023-10-08T04:27:58;8.52;;;6.40;;
37937;SDS011;23763;48.130;11.602;2023-10-08T04:30:42;9.15;;;6.38;;
37937;SDS011;23763;48.130;11.602;2023-10-08T04:33:12;10.45;;;6.80;;
37937;SDS011;23763;48.130;11.602;2023-10-08T04:35:39;13.38;;;6.93;;
37937;SDS011;23763;48.130;11.602;2023-10-08T04:38:20;10.65;;;6.65;;
37937;SDS011;23763;48.130;11.602;2023-10-08T04:40:48;7.47;;;6.65;;
37937;SDS011;23763;48.130;11.602;2023-10-08T04:43:16;8.07;;;6.57;;
37937;SDS011;23763;48.130;11.602;2023-10-08T04:45:50;11.75;;;6.50;;
37937;SDS011;23763;48.130;11.602;2023-10-08T04:48:19;7.18;;;6.03;;
37937;SDS011;23763;48.130;11.602;2023-10-08T04:50:48;9.75;;;5.95;;
37937;SDS011;23763;48.130;11.602;2023-10-08T04:53:24;8.13;;;6.15;;
37937;SDS011;23763;48.130;11.602;2023-10-08T04:55:56;10.15;;;6.78;;
37937;SDS011;23763;48.130;11.602;2023-10-08T04:58:22;7.53;;;6.80;;
37937;SDS011;23763;48.130;11.602;2023-10-08T05:00:58;13.40;;;6.50;;
37937;SDS011;23763;48.130;11.602;2023-10-08T05:03:42;7.47;;;6.65;;
37937;SDS011;23763;48.130;11.602;2023-10-08T05:06:19;10.82;;;6.53;;
37937;SDS011;23763;48.130;11.602;2023-10-08T05:11:41;10.07;;;6.25;;
37937;SDS011;23763;48.130;11.602;2023-10-08T05:14:30;7.07;;;6.38;;
37937;SDS011;23763;48.130;11.602;2023-10-08T05:16:55;9.23;;;6.95;;
37937;SDS011;23763;48.130;11.602;2023-10-08T05:19:34;9.50;;;6.68;;
37937;SDS011;23763;48.130;11.602;2023-10-08T05:22:07;7.95;;;6.00;;
37937;SDS011;23763;48.130;11.602;2023-10-08T05:24:52;8.48;;;6.45;;
37937;SDS011;23763;48.130;11.602;2023-10-08T05:27:37;9.23;;;6.28;;
37937;SDS011;23763;48.130;11.602;2023-10-08T05:30:12;7.25;;;6.55;;
37937;SDS011;23763;48.130;11.602;2023-10-08T05:32:50;9.85;;;6.38;;
37937;SDS011;23763;48.130;11.602;2023-10-08T05:35:28;10.02;;;7.15;;
37937;SDS011;23763;48.130;11.602;2023-10-08T05:38:21;9.65;;;6.40;;
37937;SDS011;23763;48.130;11.602;2023-10-08T05:40:48;8.80;;;6.60;;
37937;SDS011;23763;48.130;11.602;2023-10-08T05:43:21;7.95;;;6.82;;
37937;SDS011;23763;48.130;11.602;2023-10-08T05:48:48;7.00;;;6.30;;
37937;SDS011;23763;48.130;11.602;2023-10-08T05:51:40;9.73;;;7.22;;
37937;SDS011;23763;48.130;11.602;2023-10-08T05:54:30;8.20;;;7.28;;
37937;SDS011;23763;48.130;11.602;2023-10-08T05:59:35;7.03;;;6.32;;
37937;SDS011;23763;48.130;11.602;2023-10-08T06:04:58;9.27;;;6.55;;
37937;SDS011;23763;48.130;11.602;2023-10-08T06:07:38;7.63;;;6.60;;
37937;SDS011;23763;48.130;11.602;2023-10-08T06:10:23;7.93;;;7.13;;
37937;SDS011;23763;48.130;11.602;2023-10-08T06:13:08;7.35;;;6.47;;
37937;SDS011;23763;48.130;11.602;2023-10-08T06:15:45;7.53;;;6.45;;
37937;SDS011;23763;48.130;11.602;2023-10-08T06:18:11;7.55;;;6.85;;
37937;SDS011;23763;48.130;11.602;2023-10-08T06:20:39;9.07;;;6.93;;
37937;SDS011;23763;48.130;11.602;2023-10-08T06:23:09;8.93;;;6.72;;
37937;SDS011;23763;48.130;11.602;2023-10-08T06:25:37;8.68;;;7.63;;
37937;SDS011;23763;48.130;11.602;2023-10-08T06:28:11;7.80;;;7.10;;
37937;SDS011;23763;48.130;11.602;2023-10-08T06:30:49;8.27;;;7.55;;
37937;SDS011;23763;48.130;11.602;2023-10-08T06:33:20;8.57;;;7.25;;
37937;SDS011;23763;48.130;11.602;2023-10-08T06:35:47;7.93;;;7.22;;
37937;SDS011;23763;48.130;11.602;2023-10-08T06:38:26;8.80;;;7.90;;
37937;SDS011;23763;48.130;11.602;2023-10-08T06:40:55;8.50;;;7.60;;
37937;SDS011;23763;48.130;11.602;2023-10-08T06:43:47;9.52;;;7.90;;
37937;SDS011;23763;48.130;11.602;2023-10-08T06:46:14;8.15;;;7.38;;
37937;SDS011;23763;48.130;11.602;2023-10-08T06:48:44;9.25;;;8.20;;
37937;SDS011;23763;48.130;11.602;2023-10-08T06:51:10;9.38;;;8.10;;
37937;SDS011;23763;48.130;11.602;2023-10-08T06:53:40;7.88;;;6.90;;
37937;SDS011;23763;48.130;11.602;2023-10-08T06:56:06;7.97;;;6.70;;
37937;SDS011;23763;48.130;11.602;2023-10-08T06:58:34;8.60;;;7.07;;
37937;SDS011;23763;48.130;11.602;2023-10-08T07:01:00;10.32;;;7.03;;
37937;SDS011;23763;48.130;11.602;2023-10-08T07:03:30;7.25;;;6.57;;
37937;SDS011;23763;48.130;11.602;2023-10-08T07:05:58;8.50;;;6.82;;
37937;SDS011;23763;48.130;11.602;2023-10-08T07:08:29;7.07;;;6.40;;
37937;SDS011;23763;48.130;11.602;2023-10-08T07:11:01;9.80;;;7.90;;
37937;SDS011;23763;48.130;11.602;2023-10-08T07:13:31;8.63;;;6.60;;
37937;SDS011;23763;48.130;11.602;2023-10-08T07:15:58;10.13;;;6.88;;
37937;SDS011;23763;48.130;11.602;2023-10-08T07:18:25;7.28;;;6.40;;
37937;SDS011;23763;48.130;11.602;2023-10-08T07:20:51;8.63;;;6.72;;
37937;SDS011;23763;48.130;11.602;2023-10-08T07:23:26;10.05;;;6.85;;
37937;SDS011;23763;48.130;11.602;2023-10-08T07:25:59;9.48;;;8.27;;
37937;SDS011;23763;48.130;11.602;2023-10-08T07:28:44;12.40;;;6.78;;
37937;SDS011;23763;48.130;11.602;2023-10-08T07:31:18;8.27;;;6.78;;
37937;SDS011;23763;48.130;11.602;2023-10-08T07:33:46;10.27;;;6.75;;
37937;SDS011;23763;48.130;11.602;2023-10-08T07:36:40;8.27;;;6.88;;
37937;SDS011;23763;48.130;11.602;2023-10-08T07:39:05;10.05;;;7.53;;
37937;SDS011;23763;48.130;11.602;2023-10-08T07:41:33;12.57;;;6.85;;
37937;SDS011;23763;48.130;11.602;2023-10-08T07:43:59;13.55;;;7.22;;
37937;SDS011;23763;48.130;11.602;2023-10-08T07:46:25;10.55;;;7.28;;
37937;SDS011;23763;48.130;11.602;2023-10-08T07:48:52;10.18;;;8.07;;
37937;SDS011;23763;48.130;11.602;2023-10-08T07:51:18;14.48;;;8.07;;
37937;SDS011;23763;48.130;11.602;2023-10-08T07:53:50;13.70;;;8.77;;
37937;SDS011;23763;48.130;11.602;2023-10-08T07:56:20;9.38;;;7.45;;
37937;SDS011;23763;48.130;11.602;2023-10-08T07:58:46;10.20;;;7.35;;
37937;SDS011;23763;48.130;11.602;2023-10-08T08:01:13;7.82;;;6.75;;
37937;SDS011;23763;48.130;11.602;2023-10-08T08:03:39;11.30;;;7.57;;
37937;SDS011;23763;48.130;11.602;2023-10-08T08:06:06;11.23;;;7.45;;
37937;SDS011;23763;48.130;11.602;2023-10-08T08:08:36;9.55;;;7.68;;
37937;SDS011;23763;48.130;11.602;2023-10-08T08:11:03;8.57;;;7.60;;
37937;SDS011;23763;48.130;11.602;2023-10-08T08:13:37;14.15;;;7.78;;
37937;SDS011;23763;48.130;11.602;2023-10-08T08:16:12;9.80;;;6.90;;
37937;SDS011;23763;48.130;11.602;2023-10-08T08:18:42;12.82;;;6.60;;
37937;SDS011;23763;48.130;11.602;2023-10-08T08:21:09;9.45;;;6.63;;
37937;SDS011;23763;48.130;11.602;2023-10-08T08:23:39;10.70;;;6.82;;
37937;SDS011;23763;48.130;11.602;2023-10-08T08:26:06;10.02;;;7.47;;
37937;SDS011;23763;48.130;11.602;2023-10-08T08:28:37;10.10;;;7.07;;
37937;SDS011;23763;48.130;11.602;2023-10-08T08:31:04;9.00;;;6.78;;
37937;SDS011;23763;48.130;11.602;2023-10-08T08:33:38;9.82;;;7.75;;
37937;SDS011;23763;48.130;11.602;2023-10-08T08:36:25;8.93;;;7.28;;
37937;SDS011;23763;48.130;11.602;2023-10-08T08:38:52;11.07;;;7.55;;
37937;SDS011;23763;48.130;11.602;2023-10-08T08:41:18;14.85;;;7.13;;
37937;SDS011;23763;48.130;11.602;2023-10-08T08:43:52;8.77;;;7.38;;
37937;SDS011;23763;48.130;11.602;2023-10-08T08:46:27;11.20;;;7.65;;
37937;SDS011;23763;48.130;11.602;2023-10-08T08:49:00;14.27;;;7.78;;
37937;SDS011;23763;48.130;11.602;2023-10-08T08:51:29;7.50;;;6.80;;
37937;SDS011;23763;48.130;11.602;2023-10-08T08:53:55;8.68;;;6.78;;
37937;SDS011;23763;48.130;11.602;2023-10-08T08:56:24;12.63;;;7.28;;
37937;SDS011;23763;48.130;11.602;2023-10-08T08:58:51;10.50;;;7.47;;
37937;SDS011;23763;48.130;11.602;2023-10-08T09:01:17;11.13;;;7.30;;
37937;SDS011;23763;48.130;11.602;2023-10-08T09:03:44;9.13;;;7.65;;
37937;SDS011;23763;48.130;11.602;2023-10-08T09:06:13;10.10;;;7.38;;
37937;SDS011;23763;48.130;11.602;2023-10-08T09:08:38;8.38;;;7.40;;
37937;SDS011;23763;48.130;11.602;2023-10-08T09:11:13;13.82;;;7.32;;
37937;SDS011;23763;48.130;11.602;2023-10-08T09:13:40;9.90;;;7.22;;
37937;SDS011;23763;48.130;11.602;2023-10-08T09:16:12;9.88;;;7.60;;
37937;SDS011;23763;48.130;11.602;2023-10-08T09:18:37;12.18;;;7.65;;
37937;SDS011;23763;48.130;11.602;2023-10-08T09:21:10;9.85;;;6.97;;
37937;SDS011;23763;48.130;11.602;2023-10-08T09:23:40;11.57;;;6.75;;
37937;SDS011;23763;48.130;11.602;2023-10-08T09:26:09;11.70;;;7.70;;
37937;SDS011;23763;48.130;11.602;2023-10-08T09:28:38;10.63;;;7.00;;
37937;SDS011;23763;48.130;11.602;2023-10-08T09:31:06;12.27;;;7.75;;
37937;SDS011;23763;48.130;11.602;2023-10-08T09:33:36;8.23;;;7.13;;
37937;SDS011;23763;48.130;11.602;2023-10-08T09:36:02;8.98;;;7.55;;
37937;SDS011;23763;48.130;11.602;2023-10-08T09:38:32;9.25;;;7.18;;
37937;SDS011;23763;48.130;11.602;2023-10-08T09:40:59;9.73;;;7.47;;
37937;SDS011;23763;48.130;11.602;2023-10-08T09:43:28;13.55;;;7.35;;
37937;SDS011;23763;48.130;11.602;2023-10-08T09:46:00;9.57;;;7.10;;
37937;SDS011;23763;48.130;11.602;2023-10-08T09:48:51;10.55;;;7.38;;
37937;SDS011;23763;48.130;11.602;2023-10-08T09:51:17;10.40;;;7.38;;
37937;SDS011;23763;48.130;11.602;2023-10-08T09:54:00;11.82;;;8.38;;
37937;SDS011;23763;48.130;11.602;2023-10-08T09:56:40;11.82;;;7.90;;
37937;SDS011;23763;48.130;11.602;2023-10-08T09:59:08;11.90;;;7.45;;
37937;SDS011;23763;48.130;11.602;2023-10-08T10:01:37;9.20;;;7.28;;
37937;SDS011;23763;48.130;11.602;2023-10-08T10:04:06;13.68;;;7.50;;
37937;SDS011;23763;48.130;11.602;2023-10-08T10:06:35;10.77;;;6.95;;
37937;SDS011;23763;48.130;11.602;2023-10-08T10:09:01;11.43;;;7.20;;
37937;SDS011;23763;48.130;11.602;2023-10-08T10:11:31;11.88;;;7.65;;
37937;SDS011;23763;48.130;11.602;2023-10-08T10:14:00;18.05;;;8.32;;
37937;SDS011;23763;48.130;11.602;2023-10-08T10:16:26;9.23;;;7.45;;
37937;SDS011;23763;48.130;11.602;2023-10-08T10:18:55;11.50;;;7.07;;
37937;SDS011;23763;48.130;11.602;2023-10-08T10:21:29;11.82;;;7.05;;
37937;SDS011;23763;48.130;11.602;2023-10-08T10:23:57;10.10;;;7.65;;
37937;SDS011;23763;48.130;11.602;2023-10-08T10:31:39;9.77;;;6.57;;
37937;SDS011;23763;48.130;11.602;2023-10-08T10:34:15;14.00;;;7.43;;
37937;SDS011;23763;48.130;11.602;2023-10-08T10:36:42;11.85;;;6.55;;
37937;SDS011;23763;48.130;11.602;2023-10-08T10:39:13;17.45;;;7.68;;
37937;SDS011;23763;48.130;11.602;2023-10-08T10:41:51;13.77;;;7.05;;
37937;SDS011;23763;48.130;11.602;2023-10-08T10:44:29;12.60;;;7.97;;
37937;SDS011;23763;48.130;11.602;2023-10-08T10:46:56;16.52;;;8.10;;
37937;SDS011;23763;48.130;11.602;2023-10-08T10:49:44;13.73;;;7.40;;
37937;SDS011;23763;48.130;11.602;2023-10-08T10:52:30;10.55;;;7.13;;
37937;SDS011;23763;48.130;11.602;2023-10-08T10:54:55;10.77;;;7.50;;
37937;SDS011;23763;48.130;11.602;2023-10-08T10:57:43;12.93;;;7.07;;
37937;SDS011;23763;48.130;11.602;2023-10-08T11:00:21;10.52;;;7.95;;
37937;SDS011;23763;48.130;11.602;2023-10-08T11:02:57;11.55;;;6.47;;
37937;SDS011;23763;48.130;11.602;2023-10-08T11:05:51;12.25;;;6.85;;
37937;SDS011;23763;48.130;11.602;2023-10-08T11:08:24;13.57;;;7.20;;
37937;SDS011;23763;48.130;11.602;2023-10-08T11:10:51;12.07;;;7.90;;
37937;SDS011;23763;48.130;11.602;2023-10-08T11:13:19;13.18;;;7.40;;
37937;SDS011;23763;48.130;11.602;2023-10-08T11:15:46;13.15;;;7.70;;
37937;SDS011;23763;48.130;11.602;2023-10-08T11:18:19;13.20;;;8.05;;
37937;SDS011;23763;48.130;11.602;2023-10-08T11:20:49;11.43;;;7.10;;
37937;SDS011;23763;48.130;11.602;2023-10-08T11:23:39;15.82;;;8.43;;
37937;SDS011;23763;48.130;11.602;2023-10-08T11:26:18;18.08;;;8.30;;
37937;SDS011;23763;48.130;11.602;2023-10-08T11:28:44;12.27;;;7.60;;
37937;SDS011;23763;48.130;11.602;2023-10-08T11:31:14;10.27;;;7.07;;
37937;SDS011;23763;48.130;11.602;2023-10-08T11:33:45;15.15;;;7.32;;
37937;SDS011;23763;48.130;11.602;2023-10-08T11:36:23;9.40;;;7.28;;
37937;SDS011;23763;48.130;11.602;2023-10-08T11:38:57;12.65;;;8.35;;
37937;SDS011;23763;48.130;11.602;2023-10-08T11:41:54;16.30;;;7.47;;
37937;SDS011;23763;48.130;11.602;2023-10-08T11:44:31;11.25;;;7.65;;
37937;SDS011;23763;48.130;11.602;2023-10-08T11:47:01;11.52;;;7.30;;
37937;SDS011;23763;48.130;11.602;2023-10-08T11:49:36;9.10;;;7.22;;
37937;SDS011;23763;48.130;11.602;2023-10-08T11:52:09;12.57;;;7.82;;
37937;SDS011;23763;48.130;11.602;2023-10-08T11:54:36;13.95;;;7.88;;
37937;SDS011;23763;48.130;11.602;2023-10-08T11:57:05;12.52;;;7.82;;
37937;SDS011;23763;48.130;11.602;2023-10-08T11:59:32;13.15;;;7.72;;
37937;SDS011;23763;48.130;11.602;2023-10-08T12:02:04;11.48;;;7.65;;
37937;SDS011;23763;48.130;11.602;2023-10-08T12:04:31;12.65;;;7.05;;
37937;SDS011;23763;48.130;11.602;2023-10-08T12:06:56;14.48;;;8.10;;
37937;SDS011;23763;48.130;11.602;2023-10-08T12:09:26;14.18;;;7.22;;
37937;SDS011;23763;48.130;11.602;2023-10-08T12:11:52;13.60;;;7.65;;
37937;SDS011;23763;48.130;11.602;2023-10-08T12:14:18;13.05;;;7.63;;
37937;SDS011;23763;48.130;11.602;2023-10-08T12:16:44;15.82;;;7.47;;
37937;SDS011;23763;48.130;11.602;2023-10-08T12:19:10;12.25;;;7.70;;
37937;SDS011;23763;48.130;11.602;2023-10-08T12:21:43;11.00;;;7.93;;
37937;SDS011;23763;48.130;11.602;2023-10-08T12:24:13;13.82;;;7.20;;
37937;SDS011;23763;48.130;11.602;2023-10-08T12:26:39;13.57;;;7.10;;
37937;SDS011;23763;48.130;11.602;2023-10-08T12:29:13;13.43;;;6.53;;
37937;SDS011;23763;48.130;11.602;2023-10-08T12:31:42;10.50;;;7.28;;
37937;SDS011;23763;48.130;11.602;2023-10-08T12:34:12;9.02;;;6.70;;
37937;SDS011;23763;48.130;11.602;2023-10-08T12:36:38;14.85;;;7.90;;
37937;SDS011;23763;48.130;11.602;2023-10-08T12:39:04;16.15;;;7.70;;
37937;SDS011;23763;48.130;11.602;2023-10-08T12:41:39;10.48;;;7.78;;
37937;SDS011;23763;48.130;11.602;2023-10-08T12:44:06;14.50;;;7.80;;
37937;SDS011;23763;48.130;11.602;2023-10-08T12:46:33;14.20;;;7.95;;
37937;SDS011;23763;48.130;11.602;2023-10-08T12:48:59;12.98;;;6.97;;
37937;SDS011;23763;48.130;11.602;2023-10-08T12:51:26;18.55;;;7.03;;
37937;SDS011;23763;48.130;11.602;2023-10-08T12:53:57;14.18;;;7.88;;
37937;SDS011;23763;48.130;11.602;2023-10-08T12:56:31;12.18;;;7.35;;
37937;SDS011;23763;48.130;11.602;2023-10-08T12:59:00;13.10;;;7.40;;
37937;SDS011;23763;48.130;11.602;2023-10-08T13:01:29;13.80;;;7.70;;
37937;SDS011;23763;48.130;11.602;2023-10-08T13:03:56;13.70;;;7.47;;
37937;SDS011;23763;48.130;11.602;2023-10-08T13:06:26;12.90;;;7.20;;
37937;SDS011;23763;48.130;11.602;2023-10-08T13:08:56;11.35;;;7.30;;
37937;SDS011;23763;48.130;11.602;2023-10-08T13:11:23;11.13;;;7.93;;
37937;SDS011;23763;48.130;11.602;2023-10-08T13:13:54;15.18;;;7.45;;
37937;SDS011;23763;48.130;11.602;2023-10-08T13:16:21;13.68;;;7.75;;
37937;SDS011;23763;48.130;11.602;2023-10-08T13:18:49;13.85;;;7.82;;
37937;SDS011;23763;48.130;11.602;2023-10-08T13:21:15;14.13;;;7.78;;
37937;SDS011;23763;48.130;11.602;2023-10-08T13:23:42;20.38;;;7.72;;
37937;SDS011;23763;48.130;11.602;2023-10-08T13:26:08;12.52;;;7.68;;
37937;SDS011;23763;48.130;11.602;2023-10-08T13:28:34;13.55;;;7.55;;
37937;SDS011;23763;48.130;11.602;2023-10-08T13:31:01;16.80;;;7.38;;
37937;SDS011;23763;48.130;11.602;2023-10-08T13:33:39;14.63;;;7.45;;
37937;SDS011;23763;48.130;11.602;2023-10-08T13:36:08;13.38;;;7.53;;
37937;SDS011;23763;48.130;11.602;2023-10-08T13:38:35;12.82;;;7.75;;
37937;SDS011;23763;48.130;11.602;2023-10-08T13:41:02;13.80;;;6.55;;
37937;SDS011;23763;48.130;11.602;2023-10-08T13:43:39;15.65;;;7.20;;
37937;SDS011;23763;48.130;11.602;2023-10-08T13:46:06;15.18;;;7.53;;
37937;SDS011;23763;48.130;11.602;2023-10-08T13:48:37;13.68;;;7.13;;
37937;SDS011;23763;48.130;11.602;2023-10-08T13:51:05;16.02;;;7.47;;
37937;SDS011;23763;48.130;11.602;2023-10-08T13:53:36;18.20;;;7.38;;
37937;SDS011;23763;48.130;11.602;2023-10-08T13:56:04;12.25;;;7.68;;
37937;SDS011;23763;48.130;11.602;2023-10-08T13:58:31;10.95;;;7.65;;
37937;SDS011;23763;48.130;11.602;2023-10-08T14:00:59;12.50;;;7.63;;
37937;SDS011;23763;48.130;11.602;2023-10-08T14:03:29;12.38;;;7.70;;
37937;SDS011;23763;48.130;11.602;2023-10-08T14:05:58;16.35;;;7.20;;
37937;SDS011;23763;48.130;11.602;2023-10-08T14:08:27;17.52;;;8.43;;
37937;SDS011;23763;48.130;11.602;2023-10-08T14:10:54;13.88;;;7.70;;
37937;SDS011;23763;48.130;11.602;2023-10-08T14:13:27;14.82;;;7.93;;
37937;SDS011;23763;48.130;11.602;2023-10-08T14:15:57;12.10;;;7.18;;
37937;SDS011;23763;48.130;11.602;2023-10-08T14:18:24;12.43;;;6.88;;
37937;SDS011;23763;48.130;11.602;2023-10-08T14:21:05;13.75;;;7.15;;
37937;SDS011;23763;48.130;11.602;2023-10-08T14:23:34;11.70;;;7.18;;
37937;SDS011;23763;48.130;11.602;2023-10-08T14:26:07;15.88;;;7.38;;
37937;SDS011;23763;48.130;11.602;2023-10-08T14:28:34;11.13;;;6.82;;
37937;SDS011;23763;48.130;11.602;2023-10-08T14:31:09;13.63;;;6.82;;
37937;SDS011;23763;48.130;11.602;2023-10-08T14:33:44;16.60;;;7.57;;
37937;SDS011;23763;48.130;11.602;2023-10-08T14:36:30;8.73;;;6.72;;
37937;SDS011;23763;48.130;11.602;2023-10-08T14:39:16;21.08;;;7.30;;
37937;SDS011;23763;48.130;11.602;2023-10-08T14:42:01;14.52;;;7.05;;
37937;SDS011;23763;48.130;11.602;2023-10-08T14:44:45;17.83;;;7.05;;
37937;SDS011;23763;48.130;11.602;2023-10-08T14:47:12;11.02;;;7.18;;
37937;SDS011;23763;48.130;11.602;2023-10-08T14:49:38;10.63;;;7.18;;
37937;SDS011;23763;48.130;11.602;2023-10-08T14:52:04;22.65;;;13.93;;
37937;SDS011;23763;48.130;11.602;2023-10-08T14:54:30;13.30;;;8.10;;
37937;SDS011;23763;48.130;11.602;2023-10-08T14:56:58;12.75;;;7.20;;
37937;SDS011;23763;48.130;11.602;2023-10-08T14:59:24;15.50;;;7.18;;
37937;SDS011;23763;48.130;11.602;2023-10-08T15:01:53;9.43;;;6.63;;
37937;SDS011;23763;48.130;11.602;2023-10-08T15:04:20;14.43;;;7.07;;
37937;SDS011;23763;48.130;11.602;2023-10-08T15:06:46;15.45;;;8.05;;
37937;SDS011;23763;48.130;11.602;2023-10-08T15:09:13;17.15;;;7.80;;
37937;SDS011;23763;48.130;11.602;2023-10-08T15:11:46;15.13;;;7.82;;